M I D A S
Marine Information and Data Acquisition System
Tripno 1500 of the Zeeleeuw from 2008-06-10 06:42:01 to 2008-06-10 13:07:52
Back to CruiseResearch ActivitiesStationsMapUnderway DataData graphs

EquipmentUnitsComment
TimeDGPSUTC
LatitudeDGPSDM.mWGS84
LongitudeDGPSDM.mWGS84
HeadingGyrodeg 
SOGDGPSknotsSpeed over ground
COGDGPSdegCourse over ground
DepthEcho soundermeters200 kHz
Missing or incorrect values are displayed as -999
Navigation data collected by the RV Zeeleeuw from 2008-06-10 06:14:03 to 2008-06-10 13:10:29
Time Latitude Longitude Heading SOG COG Depth
2008-06-10 06:15:08 51°13.644 2°55.97 114.8 4.8 295 -999
2008-06-10 06:16:08 51°13.678 2°55.843 103 4.7 285 -999
2008-06-10 06:17:08 51°13.687 2°55.756 89.2 2.3 279 13.5
2008-06-10 06:18:08 51°13.695 2°55.74 39 2.4 29 14.9
2008-06-10 06:19:08 51°13.774 2°55.693 327.7 8.3 328 12.2
2008-06-10 06:20:08 51°13.89 2°55.592 333.8 8.8 333 12.7
2008-06-10 06:21:08 51°14.023 2°55.491 334.9 7.9 335 12.7
2008-06-10 06:22:08 51°14.139 2°55.402 332.5 8.9 332 12.7
2008-06-10 06:23:08 51°14.265 2°55.243 314.1 10.4 313 12.7
2008-06-10 06:24:08 51°14.397 2°55.014 316.9 12.4 319 12.8
2008-06-10 06:25:08 51°14.555 2°54.808 311.7 12.2 320 12.2
2008-06-10 06:26:08 51°14.692 2°54.576 304.3 12 309 12.3
2008-06-10 06:27:08 51°14.819 2°54.327 305.2 12.2 310 12.3
2008-06-10 06:28:08 51°14.952 2°54.084 305.6 12.2 308 11.6
2008-06-10 06:29:08 51°15.072 2°53.825 299.1 12.1 301 12.2
2008-06-10 06:30:08 51°15.154 2°53.536 286.3 11.9 290 12.1
2008-06-10 06:31:08 51°15.221 2°53.242 284.2 11.8 288 12.6
2008-06-10 06:32:08 51°15.274 2°52.944 280.6 11.7 285 13.3
2008-06-10 06:33:08 51°15.335 2°52.647 285.5 11.8 289 13.2
2008-06-10 06:34:08 51°15.394 2°52.348 281.4 11.8 286 13.6
2008-06-10 06:35:08 51°15.446 2°52.047 279.1 11.8 283 14.1
2008-06-10 06:36:08 51°15.491 2°51.743 279 11.8 283 14.4
2008-06-10 06:37:08 51°15.513 2°51.435 269.1 11.7 272 14.7
2008-06-10 06:38:08 51°15.514 2°51.125 267.2 11.7 272 14.9
2008-06-10 06:39:08 51°15.529 2°50.815 270.5 11.6 274 15
2008-06-10 06:40:08 51°15.535 2°50.508 266.3 11.6 271 15.1
2008-06-10 06:41:08 51°15.533 2°50.201 264.6 11.6 267 15.1
2008-06-10 06:42:08 51°15.523 2°49.891 265.5 11.7 266 15.2
2008-06-10 06:43:08 51°15.537 2°49.584 280.2 11.8 289 15.2
2008-06-10 06:44:08 51°15.608 2°49.291 285.8 11.9 287 14.2
2008-06-10 06:45:08 51°15.667 2°48.989 284.2 12 287 12.7
2008-06-10 06:46:08 51°15.723 2°48.683 281.1 11.9 284 13.2
2008-06-10 06:47:08 51°15.761 2°48.373 277.2 11.9 279 14.1
2008-06-10 06:48:08 51°15.766 2°48.062 261.4 11.8 264 15.3
2008-06-10 06:49:08 51°15.748 2°47.752 263.1 11.7 266 16.2
2008-06-10 06:50:08 51°15.731 2°47.444 261.9 11.6 267 16.8
2008-06-10 06:51:08 51°15.718 2°47.137 262.3 11.5 265 17.4
2008-06-10 06:52:08 51°15.698 2°46.832 261.6 11.6 266 18
2008-06-10 06:53:08 51°15.681 2°46.527 259.9 11.4 263 18.7
2008-06-10 06:54:08 51°15.655 2°46.227 260.4 11.4 264 19.2
2008-06-10 06:55:08 51°15.641 2°45.925 261.7 11.4 264 19.4
2008-06-10 06:56:08 51°15.616 2°45.625 259.2 11.4 262 19.5
2008-06-10 06:57:08 51°15.592 2°45.324 260.5 11.5 264 18.5
2008-06-10 06:58:08 51°15.573 2°45.021 259.7 11.4 263 16.9
2008-06-10 06:59:08 51°15.552 2°44.72 261.4 11.4 263 15.8
2008-06-10 07:00:08 51°15.532 2°44.418 262.6 11.5 267 15
2008-06-10 07:01:08 51°15.521 2°44.112 263.5 11.6 266 14.7
2008-06-10 07:02:08 51°15.494 2°43.808 258.7 11.5 262 14.6
2008-06-10 07:03:08 51°15.467 2°43.501 259 11.7 262 14.2
2008-06-10 07:04:08 51°15.446 2°43.191 262.5 11.7 262 14.8
2008-06-10 07:05:08 51°15.415 2°42.885 257.8 11.7 260 13.8
2008-06-10 07:06:08 51°15.38 2°42.577 257 11.8 259 13.5
2008-06-10 07:07:08 51°15.344 2°42.27 257.2 11.8 259 12.8
2008-06-10 07:08:08 51°15.318 2°41.959 260.2 11.8 262 12.5
2008-06-10 07:09:08 51°15.289 2°41.647 257.1 11.8 259 13.3
2008-06-10 07:10:08 51°15.253 2°41.341 256.7 11.7 259 12.8
2008-06-10 07:11:08 51°15.235 2°41.03 265.7 11.9 270 13.3
2008-06-10 07:12:08 51°15.235 2°40.716 266.1 11.8 270 13.5
2008-06-10 07:13:08 51°15.23 2°40.402 265.5 11.9 268 14.3
2008-06-10 07:14:08 51°15.219 2°40.087 262.6 11.9 265 15.9
2008-06-10 07:15:08 51°15.204 2°39.771 265.6 12 267 18.2
2008-06-10 07:16:08 51°15.192 2°39.454 263.1 11.9 265 19
2008-06-10 07:17:08 51°15.175 2°39.139 263.3 11.5 265 19.6
2008-06-10 07:18:08 51°15.159 2°38.93 256.3 6.2 257 19.6
2008-06-10 07:19:08 51°15.129 2°38.758 256.1 7.3 263 19.4
2008-06-10 07:20:08 51°15.11 2°38.555 257.4 7.9 258 18.5
2008-06-10 07:21:08 51°15.077 2°38.386 243.2 4.5 242 17.5
2008-06-10 07:22:08 51°15.043 2°38.322 221.6 2.3 218 16.7
2008-06-10 07:23:08 51°15.016 2°38.299 209.1 1.8 204 16.9
2008-06-10 07:24:08 51°14.991 2°38.236 258.8 3.8 269 16.6
2008-06-10 07:25:08 51°15.03 2°38.151 323.5 4.1 332 15.3
2008-06-10 07:26:08 51°15.089 2°38.127 348 3.2 356 14.7
2008-06-10 07:27:08 51°15.138 2°38.128 355 2.7 4 14.3
2008-06-10 07:28:08 51°15.183 2°38.134 355.3 2.7 4 13.8
2008-06-10 07:29:08 51°15.228 2°38.138 354.7 2.8 3 13.5
2008-06-10 07:30:08 51°15.275 2°38.142 354.4 2.8 2 13.5
2008-06-10 07:31:08 51°15.321 2°38.144 352.8 2.7 1 13.2
2008-06-10 07:32:08 51°15.367 2°38.145 354.1 2.8 3 13.1
2008-06-10 07:33:08 51°15.413 2°38.148 354.1 2.8 3 12.8
2008-06-10 07:34:08 51°15.459 2°38.154 357.7 2.8 5 13
2008-06-10 07:35:08 51°15.506 2°38.162 0.8 2.8 10 13
2008-06-10 07:36:08 51°15.551 2°38.178 8.4 2.8 15 12.7
2008-06-10 07:37:08 51°15.596 2°38.199 10.1 2.8 16 12.8
2008-06-10 07:38:08 51°15.641 2°38.219 10.3 2.8 16 12.8
2008-06-10 07:39:08 51°15.685 2°38.243 13.2 2.8 20 12.8
2008-06-10 07:40:08 51°15.729 2°38.268 14.7 2.8 20 12.5
2008-06-10 07:41:08 51°15.773 2°38.294 16.1 2.8 22 12.9
2008-06-10 07:42:08 51°15.816 2°38.324 18.6 2.8 24 12.5
2008-06-10 07:43:08 51°15.858 2°38.355 20.4 2.8 27 12.7
2008-06-10 07:44:08 51°15.898 2°38.393 34.7 2.8 37 12.5
2008-06-10 07:45:08 51°15.933 2°38.441 44.3 2.8 44 12.6
2008-06-10 07:46:08 51°15.962 2°38.494 52.2 2.4 51 12.9
2008-06-10 07:47:08 51°16.006 2°38.604 62.3 8.6 63 13.3
2008-06-10 07:48:08 51°16.044 2°38.783 86.3 5 85 14.6
2008-06-10 07:49:08 51°16.032 2°38.903 110.9 5.8 110 15.6
2008-06-10 07:50:08 51°15.999 2°39.011 130 3.5 126 17.4
2008-06-10 07:51:08 51°15.969 2°39.067 144.2 2.3 133 18.2
2008-06-10 07:52:08 51°15.944 2°39.104 155.2 2 143 18.8
2008-06-10 07:53:08 51°15.912 2°39.135 158 3 150 19.3
2008-06-10 07:54:08 51°15.828 2°39.223 146.1 9.2 141 19.6
2008-06-10 07:55:08 51°15.716 2°39.448 124 12.1 122 20.6
2008-06-10 07:56:08 51°15.611 2°39.727 122.6 12.3 120 20.2
2008-06-10 07:57:08 51°15.51 2°40.007 121.8 12.1 121 18.7
2008-06-10 07:58:08 51°15.408 2°40.283 121.3 12.1 119 16.2
2008-06-10 07:59:08 51°15.327 2°40.574 115.4 12 114 14.1
2008-06-10 08:00:08 51°15.237 2°40.856 120.2 11.9 118 13
2008-06-10 08:01:08 51°15.159 2°41.144 111 11.8 109 12.6
2008-06-10 08:02:08 51°15.091 2°41.44 111.3 12 111 13.4
2008-06-10 08:03:08 51°15.018 2°41.737 111.6 12.1 112 14
2008-06-10 08:04:08 51°14.934 2°42.03 115.4 12.2 115 14.4
2008-06-10 08:05:08 51°14.851 2°42.326 114.8 12.2 113 14.7
2008-06-10 08:06:08 51°14.789 2°42.633 103 12.2 100 15.3
2008-06-10 08:07:08 51°14.776 2°42.957 90.9 12.3 87 17.5
2008-06-10 08:08:08 51°14.801 2°43.213 76.4 6.6 73 18.9
2008-06-10 08:09:08 51°14.83 2°43.338 75.5 4.1 72 19
2008-06-10 08:10:08 51°14.842 2°43.43 88.3 3.3 82 19.1
2008-06-10 08:11:08 51°14.851 2°43.515 83.3 3.4 77 19.3
2008-06-10 08:12:08 51°14.869 2°43.604 73.4 3.6 69 19.3
2008-06-10 08:13:08 51°14.895 2°43.692 68.6 3.5 66 19.4
2008-06-10 08:14:08 51°14.912 2°43.775 84.5 3.1 79 19.3
2008-06-10 08:15:08 51°14.922 2°43.852 85 2.9 76 19.3
2008-06-10 08:16:08 51°14.936 2°43.924 74.2 2.8 67 19.1
2008-06-10 08:17:08 51°14.959 2°43.991 63.3 2.9 56 19.2
2008-06-10 08:18:08 51°14.988 2°44.052 54.1 2.9 49 19.2
2008-06-10 08:19:08 51°15.02 2°44.11 57 2.9 50 19.4
2008-06-10 08:20:08 51°15.049 2°44.173 60.6 3 54 19.3
2008-06-10 08:21:08 51°15.078 2°44.235 59.4 2.9 52 19.1
2008-06-10 08:22:08 51°15.108 2°44.295 58 2.9 51 19.3
2008-06-10 08:23:08 51°15.14 2°44.355 56.5 2.9 49 19.3
2008-06-10 08:24:08 51°15.17 2°44.414 59.9 2.8 53 19.2
2008-06-10 08:25:08 51°15.198 2°44.477 65.2 2.9 57 19.2
2008-06-10 08:26:08 51°15.222 2°44.544 70.5 2.9 62 19.2
2008-06-10 08:27:08 51°15.244 2°44.612 70.2 2.9 62 19.2
2008-06-10 08:28:08 51°15.269 2°44.681 64.1 3.1 56 19.1
2008-06-10 08:29:08 51°15.3 2°44.747 57.7 3.2 51 19.1
2008-06-10 08:30:08 51°15.336 2°44.81 50.7 3.2 46 18.9
2008-06-10 08:31:08 51°15.372 2°44.872 56.6 3.2 51 18.7
2008-06-10 08:32:08 51°15.399 2°44.945 70.1 3.2 65 18.7
2008-06-10 08:33:08 51°15.416 2°45.024 81.9 3.1 77 18.8
2008-06-10 08:34:08 51°15.423 2°45.105 91.6 3 86 18.8
2008-06-10 08:35:08 51°15.428 2°45.183 89.2 2.9 84 18.9
2008-06-10 08:36:08 51°15.427 2°45.259 103.3 2.8 99 18.9
2008-06-10 08:37:08 51°15.414 2°45.323 119.1 2.1 114 18.8
2008-06-10 08:38:08 51°15.4 2°45.363 128.4 1.5 124 18.7
2008-06-10 08:39:08 51°15.388 2°45.391 130.2 1.2 127 18.6
2008-06-10 08:40:08 51°15.378 2°45.435 100.5 2.4 92 18.2
2008-06-10 08:41:08 51°15.395 2°45.508 65 3.4 62 18.2
2008-06-10 08:42:08 51°15.427 2°45.597 62.4 3.9 60 18.2
2008-06-10 08:43:08 51°15.455 2°45.672 64.3 2.9 59 18.2
2008-06-10 08:44:08 51°15.477 2°45.736 64.5 2.9 60 18.1
2008-06-10 08:45:08 51°15.501 2°45.803 65 3 62 18.1
2008-06-10 08:46:08 51°15.525 2°45.872 65.3 2.9 62 18.1
2008-06-10 08:47:08 51°15.549 2°45.941 64.2 3 60 18.2
2008-06-10 08:48:08 51°15.573 2°46.009 64.9 3 62 18
2008-06-10 08:49:08 51°15.597 2°46.078 64.6 2.9 61 17.9
2008-06-10 08:50:08 51°15.621 2°46.146 64.4 3 61 17.9
2008-06-10 08:51:08 51°15.645 2°46.214 64.5 2.9 61 17.8
2008-06-10 08:52:08 51°15.668 2°46.282 65.2 3 62 17.7
2008-06-10 08:53:08 51°15.691 2°46.35 64.8 2.9 63 17.7
2008-06-10 08:54:08 51°15.714 2°46.418 63.8 2.9 61 17.7
2008-06-10 08:55:08 51°15.738 2°46.485 64 2.9 62 17.6
2008-06-10 08:56:08 51°15.761 2°46.553 64.4 2.9 61 17.6
2008-06-10 08:57:08 51°15.784 2°46.62 64.7 2.8 62 17.4
2008-06-10 08:58:08 51°15.807 2°46.687 64.1 2.9 61 17.5
2008-06-10 08:59:08 51°15.83 2°46.754 64.5 2.9 62 17.4
2008-06-10 09:00:08 51°15.853 2°46.821 64.6 2.9 62 17.4
2008-06-10 09:01:08 51°15.875 2°46.888 64.4 2.9 61 17.2
2008-06-10 09:02:08 51°15.897 2°46.956 64.8 2.9 62 17.2
2008-06-10 09:03:08 51°15.919 2°47.024 64.3 2.9 63 17.2
2008-06-10 09:04:08 51°15.941 2°47.092 64.5 2.9 63 17.1
2008-06-10 09:05:08 51°15.962 2°47.16 64.5 2.9 64 17
2008-06-10 09:06:08 51°15.983 2°47.228 64.4 2.9 64 16.9
2008-06-10 09:07:08 51°16.004 2°47.297 64.1 2.9 63 16.8
2008-06-10 09:08:08 51°16.025 2°47.363 64.1 2.8 64 16.7
2008-06-10 09:09:08 51°16.044 2°47.428 64.5 2.7 66 16.5
2008-06-10 09:10:08 51°16.053 2°47.496 87.1 2.6 92 16.2
2008-06-10 09:11:08 51°16.046 2°47.549 102.8 1.7 110 16.3
2008-06-10 09:12:08 51°16.02 2°47.615 127.8 4.5 136 16.2
2008-06-10 09:13:08 51°15.953 2°47.697 140.2 4.5 148 16.2
2008-06-10 09:14:08 51°15.898 2°47.732 157.3 2.9 165 15.8
2008-06-10 09:15:08 51°15.857 2°47.741 168.3 2.2 179 15.5
2008-06-10 09:16:08 51°15.825 2°47.737 174.4 1.7 188 15.2
2008-06-10 09:17:08 51°15.799 2°47.729 176 1.5 193 15
2008-06-10 09:18:08 51°15.777 2°47.721 174.3 1.2 195 14.9
2008-06-10 09:19:08 51°15.759 2°47.713 173.3 1.3 192 14.7
2008-06-10 09:20:08 51°15.731 2°47.726 129.4 2 138 14.4
2008-06-10 09:21:08 51°15.73 2°47.785 63.1 2.9 57 14.1
2008-06-10 09:22:08 51°15.779 2°47.884 53.8 6.1 53 14.3
2008-06-10 09:23:08 51°15.844 2°48.023 51.2 6.7 49 14.4
2008-06-10 09:24:08 51°15.918 2°48.156 51.1 6.7 50 14.7
2008-06-10 09:25:08 51°15.99 2°48.289 52 6.6 50 14.9
2008-06-10 09:26:08 51°16.065 2°48.427 51.3 7.2 49 15.1
2008-06-10 09:27:08 51°16.146 2°48.574 51.2 7.5 49 15.3
2008-06-10 09:28:08 51°16.228 2°48.725 51.4 7.5 50 15.4
2008-06-10 09:29:08 51°16.309 2°48.877 51.8 7.5 50 15.5
2008-06-10 09:30:08 51°16.39 2°49.028 51.7 7.5 50 15.6
2008-06-10 09:31:08 51°16.475 2°49.173 47.3 7.5 44 15.5
2008-06-10 09:32:08 51°16.568 2°49.309 44.4 7.6 42 14.5
2008-06-10 09:33:08 51°16.661 2°49.443 43.4 7.5 41 13.2
2008-06-10 09:34:08 51°16.756 2°49.573 42.4 7.5 40 11.6
2008-06-10 09:35:08 51°16.853 2°49.699 42 7.5 41 10.7
2008-06-10 09:36:08 51°16.949 2°49.828 41.4 7.5 39 9.2
2008-06-10 09:37:08 51°17.052 2°49.94 32.9 7.6 28 10
2008-06-10 09:38:08 51°17.183 2°50.039 27 8.2 23 10.1
2008-06-10 09:39:08 51°17.3 2°50.118 26.3 8.8 23 10.8
2008-06-10 09:40:08 51°17.444 2°50.219 27.8 9.7 25 11.4
2008-06-10 09:41:08 51°17.593 2°50.353 34 11.3 31 11.8
2008-06-10 09:42:08 51°17.762 2°50.505 31.6 11.7 29 12.1
2008-06-10 09:43:08 51°17.932 2°50.658 32.2 11.7 30 12.5
2008-06-10 09:44:08 51°18.098 2°50.825 35.5 11.7 32 12.7
2008-06-10 09:45:08 51°18.263 2°50.991 34.5 11.7 32 12.9
2008-06-10 09:46:08 51°18.413 2°51.183 44.2 11.6 42 13.2
2008-06-10 09:47:08 51°18.553 2°51.393 44.7 11.6 42 13.4
2008-06-10 09:48:08 51°18.694 2°51.601 44.9 11.5 43 13.6
2008-06-10 09:49:08 51°18.839 2°51.799 38.9 11.5 36 13.7
2008-06-10 09:50:08 51°18.994 2°51.977 38.8 11.4 36 14.1
2008-06-10 09:51:08 51°19.113 2°52.103 33.9 6.1 30 14.3
2008-06-10 09:52:08 51°19.187 2°52.155 23.1 4.2 12 14.8
2008-06-10 09:53:08 51°19.246 2°52.155 13.9 2.8 359 15
2008-06-10 09:54:08 51°19.286 2°52.146 2.1 2.2 335 15.1
2008-06-10 09:55:08 51°19.293 2°52.121 336.7 0.8 230 15.1
2008-06-10 09:56:08 51°19.284 2°52.102 334.4 1 233 15.2
2008-06-10 09:57:08 51°19.273 2°52.08 330.5 1.1 233 15.1
2008-06-10 09:58:08 51°19.262 2°52.058 328 1.1 230 15.2
2008-06-10 09:59:08 51°19.25 2°52.036 326.5 1.1 228 15.1
2008-06-10 10:00:08 51°19.237 2°52.013 324.3 1.2 227 15.2
2008-06-10 10:01:08 51°19.223 2°51.991 318.2 1.2 225 15.1
2008-06-10 10:02:08 51°19.209 2°51.969 311.5 1.2 221 15.1
2008-06-10 10:03:08 51°19.194 2°51.948 302.8 1.2 219 15
2008-06-10 10:04:08 51°19.179 2°51.927 293.7 1.2 220 15
2008-06-10 10:05:08 51°19.155 2°51.858 236 5.2 228 14.4
2008-06-10 10:06:08 51°19.077 2°51.859 130.7 4.7 132 14.7
2008-06-10 10:07:08 51°19.091 2°52.013 69 8 66 14.3
2008-06-10 10:08:08 51°19.173 2°52.164 37.7 5 26 14.5
2008-06-10 10:09:08 51°19.23 2°52.176 13 2.8 353 14.7
2008-06-10 10:10:08 51°19.272 2°52.15 355.3 2.9 329 14.9
2008-06-10 10:11:08 51°19.271 2°52.122 334.8 1.2 233 4.7
2008-06-10 10:12:08 51°19.259 2°52.097 330 1.2 227 14.9
2008-06-10 10:13:08 51°19.243 2°52.071 329.1 1.4 224 14.9
2008-06-10 10:14:08 51°19.226 2°52.046 324.7 1.5 220 14.9
2008-06-10 10:15:08 51°19.206 2°52.022 316.6 1.4 217 14.9
2008-06-10 10:16:08 51°19.187 2°51.999 305.5 1.4 216 14.8
2008-06-10 10:17:08 51°19.169 2°51.977 292.7 1.3 217 15
2008-06-10 10:18:08 51°19.151 2°51.956 278.6 1.3 217 14.3
2008-06-10 10:19:08 51°19.134 2°51.933 265.6 1.3 222 14.1
2008-06-10 10:20:08 51°19.117 2°51.909 255.9 1.3 224 14.5
2008-06-10 10:21:08 51°19.1 2°51.884 247.6 1.9 226 14.6
2008-06-10 10:22:08 51°19.034 2°51.847 159.6 5.1 162 14.4
2008-06-10 10:23:08 51°19.021 2°51.939 55 4.2 41 14.1
2008-06-10 10:24:08 51°19.125 2°52.044 33.6 9 26 13.8
2008-06-10 10:25:08 51°19.219 2°52.139 41.9 4.7 35 14.6
2008-06-10 10:26:08 51°19.266 2°52.161 16.8 2.3 353 14.8
2008-06-10 10:27:08 51°19.284 2°52.129 334.7 1.2 251 14.8
2008-06-10 10:28:08 51°19.272 2°52.097 305.1 1.5 233 14.8
2008-06-10 10:29:08 51°19.257 2°52.066 279.2 1.5 230 14.9
2008-06-10 10:30:08 51°19.24 2°52.035 260.8 1.6 227 14.9
2008-06-10 10:31:08 51°19.221 2°52.003 251.1 1.6 228 14.9
2008-06-10 10:32:08 51°19.203 2°51.97 248.3 1.7 228 14.8
2008-06-10 10:33:08 51°19.184 2°51.937 250.1 1.7 231 14.9
2008-06-10 10:34:08 51°19.166 2°51.903 254.5 1.7 231 14.3
2008-06-10 10:35:08 51°19.148 2°51.868 258.8 1.7 229 14.3
2008-06-10 10:36:08 51°19.13 2°51.833 262.2 1.6 234 14.6
2008-06-10 10:37:08 51°19.113 2°51.8 266.4 1.6 231 14.6
2008-06-10 10:38:08 51°19.095 2°51.766 268.3 1.6 231 14.6
2008-06-10 10:39:08 51°19.077 2°51.732 270.6 1.6 232 14.7
2008-06-10 10:40:08 51°19.059 2°51.699 271.4 1.6 229 14.8
2008-06-10 10:41:08 51°19.04 2°51.667 267.6 1.7 225 14.8
2008-06-10 10:42:08 51°19.021 2°51.636 260.4 1.7 226 14.7
2008-06-10 10:43:08 51°18.997 2°51.593 242.4 3.2 233 14.7
2008-06-10 10:44:08 51°18.946 2°51.53 187.6 4.1 200 14.1
2008-06-10 10:45:08 51°18.889 2°51.536 126.2 2.9 150 14.2
2008-06-10 10:46:08 51°18.869 2°51.589 83.4 2.6 103 13.9
2008-06-10 10:47:08 51°18.853 2°51.671 96 3.9 113 13.7
2008-06-10 10:48:08 51°18.818 2°51.772 105.6 4.5 120 13.4
2008-06-10 10:49:08 51°18.78 2°51.879 105.1 4.7 119 13
2008-06-10 10:50:08 51°18.747 2°51.985 95.5 3.7 103 12.6
2008-06-10 10:51:08 51°18.771 2°52.044 41.8 3.2 38 12.7
2008-06-10 10:52:08 51°18.805 2°52.11 57.6 3.3 60 12.6
2008-06-10 10:53:08 51°18.833 2°52.176 51.8 2.8 52 12.6
2008-06-10 10:54:08 51°18.866 2°52.227 43.5 2.7 38 12.6
2008-06-10 10:55:08 51°18.902 2°52.272 44.4 2.8 41 12.7
2008-06-10 10:56:08 51°18.928 2°52.333 62.2 2.8 67 12.6
2008-06-10 10:57:08 51°18.95 2°52.398 54.1 2.7 55 12.6
2008-06-10 10:58:08 51°18.983 2°52.452 47.2 3.1 45 12.6
2008-06-10 10:59:08 51°19.013 2°52.519 57.6 3.1 63 12.6
2008-06-10 11:00:08 51°19.034 2°52.59 58.5 2.9 62 12.5
2008-06-10 11:01:08 51°19.059 2°52.652 50.7 2.8 51 12.5
2008-06-10 11:02:08 51°19.087 2°52.712 55.1 2.9 61 12.5
2008-06-10 11:03:08 51°19.108 2°52.78 58.6 2.9 64 12.4
2008-06-10 11:04:08 51°19.13 2°52.846 55.3 2.8 60 12.4
2008-06-10 11:05:08 51°19.155 2°52.907 52.7 2.8 57 12.4
2008-06-10 11:06:08 51°19.177 2°52.973 58.9 2.9 67 12.4
2008-06-10 11:07:08 51°19.191 2°53.046 65 2.9 75 12.3
2008-06-10 11:08:08 51°19.206 2°53.115 57.1 2.7 65 12.2
2008-06-10 11:09:08 51°19.232 2°53.18 51.4 3 56 12.2
2008-06-10 11:10:08 51°19.254 2°53.255 60.6 3.2 69 12.1
2008-06-10 11:11:08 51°19.273 2°53.334 57.9 3.1 66 12.1
2008-06-10 11:12:08 51°19.297 2°53.405 53.6 3.1 61 12
2008-06-10 11:13:08 51°19.324 2°53.475 53 3.1 59 12
2008-06-10 11:14:08 51°19.35 2°53.545 52.7 3.1 57 12
2008-06-10 11:15:08 51°19.374 2°53.615 57.3 3 66 12.1
2008-06-10 11:16:08 51°19.388 2°53.691 67.9 3 86 12
2008-06-10 11:17:08 51°19.369 2°53.772 97.5 3.1 126 11.8
2008-06-10 11:18:08 51°19.337 2°53.817 107.9 2.3 150 11.8
2008-06-10 11:19:08 51°19.303 2°53.851 105.5 3 139 11.7
2008-06-10 11:20:08 51°19.26 2°53.916 113.2 3.4 140 11.6
2008-06-10 11:21:08 51°19.225 2°53.955 102.6 2 149 11.5
2008-06-10 11:22:08 51°19.2 2°53.972 95 1.4 165 11.5
2008-06-10 11:23:08 51°19.18 2°53.975 89.5 1.2 184 11.5
2008-06-10 11:24:08 51°19.16 2°53.967 87 1.2 198 11.5
2008-06-10 11:25:08 51°19.148 2°53.974 59 0.8 76 11.5
2008-06-10 11:26:08 51°19.176 2°53.994 28.7 3 22 11.4
2008-06-10 11:27:08 51°19.232 2°54.035 30.6 3.8 26 11.5
2008-06-10 11:28:08 51°19.274 2°54.088 45.8 3 48 11.6
2008-06-10 11:29:08 51°19.306 2°54.147 47.1 3.1 48 11.5
2008-06-10 11:30:08 51°19.342 2°54.206 42 3.1 42 11.6
2008-06-10 11:31:08 51°19.384 2°54.256 36.8 3.2 34 11.6
2008-06-10 11:32:08 51°19.425 2°54.308 44.9 3.2 48 11.7
2008-06-10 11:33:08 51°19.455 2°54.377 54.3 3.2 59 11.7
2008-06-10 11:34:08 51°19.485 2°54.442 45.1 3 45 11.7
2008-06-10 11:35:08 51°19.524 2°54.49 37.9 3 36 11.8
2008-06-10 11:36:08 51°19.56 2°54.545 45.7 3.1 48 11.9
2008-06-10 11:37:08 51°19.593 2°54.608 47.9 3 51 11.9
2008-06-10 11:38:08 51°19.623 2°54.672 50 3 55 11.8
2008-06-10 11:39:08 51°19.651 2°54.738 50 3 55 11.8
2008-06-10 11:40:08 51°19.678 2°54.806 53.6 3.1 60 11.8
2008-06-10 11:41:08 51°19.702 2°54.878 54.7 3 61 11.9
2008-06-10 11:42:08 51°19.728 2°54.945 51.1 2.9 55 11.8
2008-06-10 11:43:08 51°19.757 2°55.007 47.6 2.9 51 11.9
2008-06-10 11:44:08 51°19.786 2°55.071 52.1 3 58 11.8
2008-06-10 11:45:08 51°19.809 2°55.141 56.7 3 64 11.9
2008-06-10 11:46:08 51°19.832 2°55.212 55.6 3 62 12
2008-06-10 11:47:08 51°19.855 2°55.278 53 2.9 58 11.9
2008-06-10 11:48:08 51°19.883 2°55.341 49.5 2.8 52 11.9
2008-06-10 11:49:08 51°19.912 2°55.4 48 2.9 50 12.1
2008-06-10 11:50:08 51°19.944 2°55.458 46.4 2.9 48 12
2008-06-10 11:51:08 51°19.976 2°55.513 46 2.8 47 12.1
2008-06-10 11:52:08 51°20.007 2°55.566 44.8 2.8 45 12
2008-06-10 11:53:08 51°20.034 2°55.619 56.6 2.6 69 12.1
2008-06-10 11:54:08 51°20.031 2°55.691 82.3 2.8 105 12
2008-06-10 11:55:08 51°20.006 2°55.762 106.6 3.5 131 12.1
2008-06-10 11:56:09 51°19.95 2°55.831 130.5 4.6 150 11.9
2008-06-10 11:57:08 51°19.873 2°55.869 157.6 5.2 174 11.7
2008-06-10 11:58:09 51°19.779 2°55.85 186 5.9 197 11.5
2008-06-10 11:59:08 51°19.704 2°55.787 212.7 4.3 216 11.6
2008-06-10 12:00:08 51°19.658 2°55.721 230.7 3.2 227 11.5
2008-06-10 12:01:08 51°19.626 2°55.665 244.3 2.6 228 11.5
2008-06-10 12:02:08 51°19.6 2°55.618 252.7 2.3 228 11.5
2008-06-10 12:03:08 51°19.575 2°55.576 259.6 2.1 227 11.5
2008-06-10 12:04:08 51°19.552 2°55.536 265.9 2 226 11.4
2008-06-10 12:05:08 51°19.53 2°55.493 274.6 2.3 234 11.4
2008-06-10 12:06:08 51°19.499 2°55.42 237.8 4.8 231 11.4
2008-06-10 12:07:08 51°19.431 2°55.297 232.1 6.8 229 11.3
2008-06-10 12:08:08 51°19.352 2°55.148 232.6 8.2 229 11.2
2008-06-10 12:09:08 51°19.253 2°54.958 232.2 9.8 229 11
2008-06-10 12:10:08 51°19.141 2°54.747 231.9 11 230 11
2008-06-10 12:11:08 51°19.016 2°54.504 233.3 12.2 232 10.9
2008-06-10 12:12:08 51°18.901 2°54.291 227.1 7.9 226 11.2
2008-06-10 12:13:08 51°18.825 2°54.21 197.3 4.5 207 11.1
2008-06-10 12:14:09 51°18.762 2°54.165 186.7 3.7 203 10.9
2008-06-10 12:15:08 51°18.709 2°54.132 179.4 3.3 200 10.9
2008-06-10 12:16:09 51°18.66 2°54.104 171.9 3 198 10.8
2008-06-10 12:17:08 51°18.616 2°54.083 164.6 2.7 197 10.7
2008-06-10 12:18:08 51°18.574 2°54.064 158 2.5 197 10.7
2008-06-10 12:19:08 51°18.537 2°54.046 151.6 2.3 196 10.6
2008-06-10 12:20:08 51°18.501 2°54.029 145.6 2.1 197 10.6
2008-06-10 12:21:09 51°18.446 2°54.015 178.8 4.4 198 10.6
2008-06-10 12:22:08 51°18.391 2°53.924 251 5.1 244 10.5
2008-06-10 12:23:08 51°18.36 2°53.741 268.5 9 264 10.5
2008-06-10 12:24:08 51°18.412 2°53.467 312.7 11.6 308 10.5
2008-06-10 12:25:08 51°18.538 2°53.221 317.9 12 309 10.8
2008-06-10 12:26:08 51°18.665 2°52.973 318.7 12.1 310 11
2008-06-10 12:27:08 51°18.75 2°52.782 306.7 5.5 282 11.4
2008-06-10 12:28:08 51°18.733 2°52.701 248.5 1.7 224 11.5
2008-06-10 12:29:09 51°18.724 2°52.692 216.5 0.3 329 -999
2008-06-10 12:30:09 51°18.696 2°52.669 176.9 4.4 189 11.5
2008-06-10 12:31:08 51°18.644 2°52.692 101 1.8 210 11.3
2008-06-10 12:32:08 51°18.63 2°52.702 64.5 1.3 98 11.2
2008-06-10 12:33:08 51°18.631 2°52.732 49.7 0.9 61 11.2
2008-06-10 12:34:08 51°18.639 2°52.765 59.3 1.2 76 11.2
2008-06-10 12:35:08 51°18.646 2°52.778 34.2 0.3 344 11.3
2008-06-10 12:36:08 51°18.648 2°52.769 28.2 0.4 278 11.3
2008-06-10 12:37:08 51°18.646 2°52.759 44.8 0.4 211 11.3
2008-06-10 12:38:08 51°18.637 2°52.758 59.4 0.7 177 11.3
2008-06-10 12:39:09 51°18.629 2°52.76 48.8 0.3 129 11.3
2008-06-10 12:40:08 51°18.631 2°52.766 37.9 0.3 19 11.3
2008-06-10 12:41:09 51°18.634 2°52.761 31.8 0.3 314 11.2
2008-06-10 12:42:08 51°18.638 2°52.756 30.7 0.4 334 11.3
2008-06-10 12:43:09 51°18.643 2°52.754 42 0.2 57 11.4
2008-06-10 12:44:08 51°18.635 2°52.777 83.5 2.4 124 11.3
2008-06-10 12:45:09 51°18.543 2°52.823 163.4 8.7 180 11.1
2008-06-10 12:46:09 51°18.37 2°52.747 189.7 12.2 196 10.9
2008-06-10 12:47:08 51°18.163 2°52.655 190.8 13.6 195 10.4
2008-06-10 12:48:09 51°17.939 2°52.6 176.5 13.3 183 10.3
2008-06-10 12:49:08 51°17.722 2°52.593 172.9 13.2 179 10
2008-06-10 12:50:08 51°17.502 2°52.591 174.8 13.2 181 9.7
2008-06-10 12:51:08 51°17.283 2°52.568 179.3 13.1 183 9.7
2008-06-10 12:52:08 51°17.073 2°52.625 159.6 12.8 166 9.2
2008-06-10 12:53:08 51°16.869 2°52.721 154.5 12.6 160 9.2
2008-06-10 12:54:08 51°16.671 2°52.833 155.3 12.8 161 10.7
2008-06-10 12:55:09 51°16.469 2°52.939 156.6 12.6 162 11.4
2008-06-10 12:56:08 51°16.272 2°53.035 156.9 12.5 163 11.4
2008-06-10 12:57:09 51°16.067 2°53.129 157.6 12.5 165 11.3
2008-06-10 12:58:08 51°15.868 2°53.215 158.9 12.6 165 11.2
2008-06-10 12:59:09 51°15.666 2°53.317 153 12.5 161 10.7
2008-06-10 13:00:08 51°15.48 2°53.438 147.1 12.2 153 10.1
2008-06-10 13:01:09 51°15.297 2°53.592 144.6 12.2 152 9.8
2008-06-10 13:02:09 51°15.121 2°53.747 145.3 12.2 152 9.3
2008-06-10 13:03:09 51°14.948 2°53.914 139.4 12.1 144 9
2008-06-10 13:04:09 51°14.806 2°54.132 124.6 11.7 131 9.4
2008-06-10 13:05:08 51°14.677 2°54.361 126.9 11.7 133 10
2008-06-10 13:06:09 51°14.543 2°54.594 125.1 11.7 130 10.2
2008-06-10 13:07:08 51°14.43 2°54.834 120 11.5 127 10.3
2008-06-10 13:08:08 51°14.327 2°55.099 119.7 12.1 121 10.6
2008-06-10 13:09:09 51°14.204 2°55.337 137.2 10.3 142 -999
2008-06-10 13:10:09 51°14.072 2°55.452 152.4 8 154 10.2